N258PW KRDG-KAVP
Flight info
| Callsign | N258PW |
|---|---|
| Flight time | 0h 21m |
| Altitude | 3500 |
| Route | LVZ |
| Aircraft | BE58/L-VGD/C |
Departure
| Time | 2026-04-25 17:34 |
|---|---|
| Airport | Reading Regional Airport (Carl A Spaatz Field) (KRDG) |
Arrival
| Time | 2026-04-25 17:55 |
|---|---|
| Airport | Wilkes-Barre/Scranton International Airport (KAVP) |
| Time | Latitude | Longitude | Altitude | Speed | Heading |
|---|---|---|---|---|---|
| 2026-04-25 17:23 | 40.37715 | -75.97133 | 332 ft | 0 kts | 124° |
| 2026-04-25 17:31 | 40.37714 | -75.97133 | 332 ft | 1 kts | 125° |
| 2026-04-25 17:31 | 40.37724 | -75.97103 | 331 ft | 8 kts | 21° |
| 2026-04-25 17:31 | 40.37794 | -75.97098 | 335 ft | 12 kts | 4° |
| 2026-04-25 17:31 | 40.37878 | -75.97100 | 338 ft | 12 kts | 329° |
| 2026-04-25 17:32 | 40.37938 | -75.97186 | 337 ft | 14 kts | 302° |
| 2026-04-25 17:32 | 40.37993 | -75.97312 | 340 ft | 16 kts | 298° |
| 2026-04-25 17:32 | 40.38055 | -75.97441 | 337 ft | 13 kts | 301° |
| 2026-04-25 17:32 | 40.38119 | -75.97468 | 341 ft | 13 kts | 30° |
| 2026-04-25 17:33 | 40.38172 | -75.97410 | 340 ft | 9 kts | 75° |
| 2026-04-25 17:33 | 40.38131 | -75.97304 | 338 ft | 39 kts | 121° |
| 2026-04-25 17:33 | 40.37846 | -75.96702 | 360 ft | 106 kts | 122° |
| 2026-04-25 17:33 | 40.37386 | -75.95813 | 584 ft | 127 kts | 121° |
| 2026-04-25 17:34 | 40.36918 | -75.94842 | 1052 ft | 123 kts | 110° |
| 2026-04-25 17:34 | 40.36878 | -75.93747 | 1487 ft | 127 kts | 77° |
| 2026-04-25 17:34 | 40.37468 | -75.92820 | 1799 ft | 146 kts | 35° |
| 2026-04-25 17:34 | 40.38525 | -75.92497 | 1978 ft | 168 kts | 4° |
| 2026-04-25 17:35 | 40.39714 | -75.92736 | 2133 ft | 178 kts | 353° |
| 2026-04-25 17:35 | 40.40964 | -75.93068 | 2236 ft | 185 kts | 352° |
| 2026-04-25 17:35 | 40.42226 | -75.93407 | 2417 ft | 185 kts | 353° |
| 2026-04-25 17:35 | 40.43483 | -75.93713 | 2637 ft | 183 kts | 353° |
| 2026-04-25 17:36 | 40.44731 | -75.94011 | 2885 ft | 182 kts | 353° |
| 2026-04-25 17:36 | 40.45980 | -75.94250 | 3126 ft | 179 kts | 7° |
| 2026-04-25 17:36 | 40.47148 | -75.93878 | 3375 ft | 175 kts | 24° |
| 2026-04-25 17:36 | 40.48312 | -75.93391 | 3605 ft | 176 kts | 21° |
| 2026-04-25 17:37 | 40.49506 | -75.92974 | 3870 ft | 180 kts | 17° |
| 2026-04-25 17:37 | 40.50751 | -75.92591 | 4123 ft | 182 kts | 15° |
| 2026-04-25 17:37 | 40.51971 | -75.92223 | 4384 ft | 182 kts | 14° |
| 2026-04-25 17:37 | 40.53234 | -75.91837 | 4640 ft | 185 kts | 13° |
| 2026-04-25 17:38 | 40.54495 | -75.91453 | 4894 ft | 187 kts | 12° |
| 2026-04-25 17:38 | 40.54906 | -75.91328 | 4976 ft | 188 kts | 12° |
| 2026-04-25 17:38 | 40.57037 | -75.90675 | 5398 ft | 189 kts | 10° |
| 2026-04-25 17:38 | 40.58336 | -75.90277 | 5509 ft | 197 kts | 11° |
| 2026-04-25 17:39 | 40.59700 | -75.89860 | 5517 ft | 205 kts | 11° |
| 2026-04-25 17:39 | 40.61108 | -75.89429 | 5519 ft | 209 kts | 11° |
| 2026-04-25 17:39 | 40.62535 | -75.88990 | 5516 ft | 213 kts | 11° |
| 2026-04-25 17:39 | 40.63987 | -75.88547 | 5515 ft | 216 kts | 11° |
| 2026-04-25 17:40 | 40.65456 | -75.88095 | 5516 ft | 217 kts | 11° |
| 2026-04-25 17:40 | 40.66932 | -75.87641 | 5519 ft | 218 kts | 11° |
| 2026-04-25 17:40 | 40.68422 | -75.87184 | 5517 ft | 220 kts | 11° |
| 2026-04-25 17:40 | 40.69871 | -75.86517 | 5503 ft | 220 kts | 19° |
| 2026-04-25 17:41 | 40.71351 | -75.86256 | 5509 ft | 213 kts | 354° |
| 2026-04-25 17:41 | 40.72830 | -75.86337 | 5512 ft | 213 kts | 352° |
| 2026-04-25 17:41 | 40.74315 | -75.86428 | 5505 ft | 214 kts | 352° |
| 2026-04-25 17:41 | 40.75807 | -75.86523 | 5512 ft | 215 kts | 352° |
| 2026-04-25 17:42 | 40.77305 | -75.86614 | 5506 ft | 215 kts | 352° |
| 2026-04-25 17:42 | 40.78798 | -75.86709 | 5507 ft | 215 kts | 352° |
| 2026-04-25 17:42 | 40.80291 | -75.86813 | 5510 ft | 216 kts | 352° |
| 2026-04-25 17:42 | 40.81794 | -75.86909 | 5514 ft | 216 kts | 352° |
| 2026-04-25 17:43 | 40.83296 | -75.87002 | 5504 ft | 216 kts | 353° |
| 2026-04-25 17:43 | 40.84719 | -75.87410 | 5507 ft | 206 kts | 328° |
| 2026-04-25 17:43 | 40.86047 | -75.88200 | 5387 ft | 214 kts | 335° |
| 2026-04-25 17:43 | 40.87478 | -75.88639 | 5256 ft | 209 kts | 346° |
| 2026-04-25 17:44 | 40.88898 | -75.88911 | 5126 ft | 204 kts | 346° |
| 2026-04-25 17:44 | 40.90266 | -75.89210 | 4993 ft | 200 kts | 344° |
| 2026-04-25 17:44 | 40.91630 | -75.89535 | 4866 ft | 198 kts | 342° |
| 2026-04-25 17:44 | 40.92986 | -75.89857 | 4743 ft | 199 kts | 342° |
| 2026-04-25 17:45 | 40.94371 | -75.90187 | 4605 ft | 200 kts | 344° |
| 2026-04-25 17:45 | 40.94816 | -75.90291 | 4564 ft | 200 kts | 345° |
| 2026-04-25 17:45 | 40.97096 | -75.90824 | 4344 ft | 200 kts | 346° |
| 2026-04-25 17:45 | 40.98469 | -75.91146 | 4208 ft | 198 kts | 348° |
| 2026-04-25 17:46 | 40.99818 | -75.91462 | 4083 ft | 197 kts | 348° |
| 2026-04-25 17:46 | 41.01165 | -75.91779 | 4015 ft | 194 kts | 349° |
| 2026-04-25 17:46 | 41.02478 | -75.92088 | 4001 ft | 189 kts | 349° |
| 2026-04-25 17:46 | 41.03766 | -75.92392 | 3998 ft | 186 kts | 349° |
| 2026-04-25 17:47 | 41.04615 | -75.92592 | 3998 ft | 182 kts | 349° |
| 2026-04-25 17:47 | 41.05854 | -75.92883 | 3986 ft | 180 kts | 348° |
| 2026-04-25 17:47 | 41.07087 | -75.93174 | 3989 ft | 180 kts | 349° |
| 2026-04-25 17:47 | 41.08727 | -75.93560 | 3988 ft | 182 kts | 349° |
| 2026-04-25 17:48 | 41.10747 | -75.93156 | 3984 ft | 175 kts | 34° |
| 2026-04-25 17:48 | 41.11752 | -75.92258 | 3996 ft | 174 kts | 39° |
| 2026-04-25 17:48 | 41.12748 | -75.91366 | 4002 ft | 172 kts | 39° |
| 2026-04-25 17:49 | 41.13728 | -75.90456 | 4002 ft | 172 kts | 40° |
| 2026-04-25 17:49 | 41.14705 | -75.89541 | 3998 ft | 172 kts | 40° |
| 2026-04-25 17:49 | 41.15692 | -75.88658 | 4004 ft | 174 kts | 39° |
| 2026-04-25 17:49 | 41.16690 | -75.87754 | 4005 ft | 174 kts | 39° |
| 2026-04-25 17:50 | 41.17696 | -75.86841 | 3994 ft | 177 kts | 39° |
| 2026-04-25 17:50 | 41.18713 | -75.85921 | 3996 ft | 177 kts | 40° |
| 2026-04-25 17:50 | 41.19718 | -75.85015 | 3989 ft | 173 kts | 39° |
| 2026-04-25 17:50 | 41.20705 | -75.84122 | 3946 ft | 173 kts | 40° |
| 2026-04-25 17:51 | 41.21705 | -75.83219 | 3728 ft | 168 kts | 41° |
| 2026-04-25 17:51 | 41.22644 | -75.82374 | 3512 ft | 157 kts | 42° |
| 2026-04-25 17:51 | 41.23529 | -75.81571 | 3306 ft | 151 kts | 43° |
| 2026-04-25 17:51 | 41.24366 | -75.80816 | 3094 ft | 143 kts | 44° |
| 2026-04-25 17:52 | 41.25174 | -75.80081 | 2895 ft | 136 kts | 44° |
| 2026-04-25 17:52 | 41.25686 | -75.79622 | 2773 ft | 132 kts | 44° |
| 2026-04-25 17:52 | 41.26684 | -75.78706 | 2531 ft | 129 kts | 43° |
| 2026-04-25 17:52 | 41.27422 | -75.78044 | 2275 ft | 127 kts | 41° |
| 2026-04-25 17:53 | 41.28144 | -75.77388 | 2085 ft | 126 kts | 39° |
| 2026-04-25 17:53 | 41.28866 | -75.76734 | 1906 ft | 125 kts | 37° |
| 2026-04-25 17:53 | 41.29565 | -75.76100 | 1752 ft | 117 kts | 38° |
| 2026-04-25 17:53 | 41.30225 | -75.75501 | 1608 ft | 114 kts | 38° |
| 2026-04-25 17:54 | 41.30876 | -75.74910 | 1464 ft | 114 kts | 37° |
| 2026-04-25 17:54 | 41.31533 | -75.74314 | 1321 ft | 114 kts | 36° |
| 2026-04-25 17:54 | 41.32187 | -75.73718 | 1173 ft | 114 kts | 39° |
| 2026-04-25 17:54 | 41.32857 | -75.73179 | 1009 ft | 105 kts | 37° |
| 2026-04-25 17:55 | 41.33381 | -75.72753 | 949 ft | 72 kts | 39° |
| 2026-04-25 17:55 | 41.33689 | -75.72460 | 941 ft | 39 kts | 36° |
| 2026-04-25 17:55 | 41.33887 | -75.72306 | 935 ft | 22 kts | 16° |
| 2026-04-25 17:55 | 41.33947 | -75.72336 | 933 ft | 6 kts | 288° |
| 2026-04-25 17:56 | 41.33947 | -75.72380 | 932 ft | 4 kts | 250° |
| 2026-04-25 17:56 | 41.33930 | -75.72417 | 933 ft | 7 kts | 223° |
| 2026-04-25 17:56 | 41.33887 | -75.72454 | 935 ft | 8 kts | 211° |
| 2026-04-25 17:56 | 41.33834 | -75.72500 | 937 ft | 10 kts | 214° |
| 2026-04-25 17:57 | 41.33769 | -75.72559 | 939 ft | 12 kts | 215° |
| 2026-04-25 17:57 | 41.33699 | -75.72641 | 941 ft | 15 kts | 252° |
| 2026-04-25 17:57 | 41.33670 | -75.72749 | 941 ft | 11 kts | 231° |
| 2026-04-25 17:57 | 41.33659 | -75.72807 | 940 ft | 8 kts | 301° |
| 2026-04-25 17:58 | 41.33665 | -75.72814 | 940 ft | 0 kts | 338° |